createdAt,value
2019-05-17T00:01:47.017Z,94452.88
2019-05-17T00:04:16.768Z,94448.14
2019-05-17T00:06:47.623Z,94440.06
2019-05-17T00:09:17.734Z,94441.67
2019-05-17T00:11:47.517Z,94441.28
2019-05-17T00:14:18.710Z,94442.30
2019-05-17T00:16:48.228Z,94434.30
2019-05-17T00:19:17.778Z,94428.89
2019-05-17T00:21:47.620Z,94431.72
2019-05-17T00:24:18.313Z,94421.44
2019-05-17T00:26:48.040Z,94422.89
2019-05-17T00:29:17.566Z,94429.30
2019-05-17T00:31:47.088Z,94429.75
2019-05-17T00:34:16.887Z,94432.73
2019-05-17T00:36:47.041Z,94438.17
2019-05-17T00:39:16.858Z,94438.41
2019-05-17T00:41:46.980Z,94438.20
2019-05-17T00:44:17.012Z,94432.52
2019-05-17T00:46:46.871Z,94435.23
2019-05-17T00:49:17.250Z,94436.33
2019-05-17T00:51:47.448Z,94429.56
2019-05-17T00:54:17.590Z,94427.03
2019-05-17T00:56:47.280Z,94430.16
2019-05-17T00:59:17.169Z,94428.55
2019-05-17T01:01:47.016Z,94431.33
2019-05-17T01:04:17.273Z,94429.41
2019-05-17T01:06:47.148Z,94430.28
2019-05-17T01:09:17.111Z,94429.27
2019-05-17T01:11:47.435Z,94428.87
2019-05-17T01:14:17.711Z,94428.97
2019-05-17T01:16:47.713Z,94429.56
2019-05-17T01:19:17.201Z,94427.95
2019-05-17T01:21:47.458Z,94433.80
2019-05-17T01:24:17.485Z,94436.42
2019-05-17T01:26:47.148Z,94437.73
2019-05-17T01:29:17.541Z,94431.12
2019-05-17T01:31:47.457Z,94436.52
2019-05-17T01:34:16.951Z,94436.61
2019-05-17T01:36:46.634Z,94431.72
2019-05-17T01:39:20.553Z,94429.21
2019-05-17T01:41:47.450Z,94426.55
2019-05-17T01:44:16.996Z,94423.09
2019-05-17T01:46:46.694Z,94425.41
2019-05-17T01:49:16.559Z,94428.78
2019-05-17T01:51:46.638Z,94421.23
2019-05-17T01:54:17.499Z,94419.41
2019-05-17T01:56:47.340Z,94418.81
2019-05-17T01:59:17.405Z,94418.75
2019-05-17T02:01:48.672Z,94409.56
2019-05-17T02:04:18.866Z,94417.09
2019-05-17T02:06:48.455Z,94413.45
2019-05-17T02:09:33.798Z,94412.29
2019-05-17T02:11:49.615Z,94415.21
2019-05-17T02:14:19.422Z,94415.92
2019-05-17T02:16:49.395Z,94415.38
2019-05-17T02:19:19.235Z,94416.78
2019-05-17T02:21:48.731Z,94420.31
2019-05-17T02:24:18.229Z,94418.48
2019-05-17T02:26:48.717Z,94420.46
2019-05-17T02:29:18.216Z,94409.84
2019-05-17T02:31:48.783Z,94417.27
2019-05-17T02:34:18.487Z,94422.37
2019-05-17T02:36:48.177Z,94411.45
2019-05-17T02:39:23.282Z,94411.97
2019-05-17T02:41:53.316Z,94418.02
2019-05-17T02:44:23.763Z,94416.11
2019-05-17T02:46:53.977Z,94421.56
2019-05-17T02:49:23.815Z,94421.21
2019-05-17T02:51:53.353Z,94421.77
2019-05-17T02:54:23.696Z,94421.92
2019-05-17T02:56:54.532Z,94423.27
2019-05-17T02:59:25.130Z,94422.82
2019-05-17T03:01:54.764Z,94422.52
2019-05-17T03:04:24.456Z,94413.58
2019-05-17T03:07:03.741Z,94414.50
2019-05-17T03:09:35.767Z,94417.13
2019-05-17T03:12:05.507Z,94418.48
2019-05-17T03:14:37.840Z,94417.50
2019-05-17T03:17:07.445Z,94423.72
2019-05-17T03:19:36.986Z,94422.69
2019-05-17T03:22:33.201Z,94419.11
2019-05-17T03:25:07.111Z,94412.76
2019-05-17T03:27:44.809Z,94399.62
2019-05-17T03:30:25.234Z,94401.23
2019-05-17T03:32:57.216Z,94401.09
2019-05-17T03:35:38.799Z,94406.97
2019-05-17T03:38:15.674Z,94420.77
2019-05-17T03:41:17.656Z,94418.51
2019-05-17T03:43:22.602Z,94418.48
2019-05-17T03:45:56.181Z,94426.87
2019-05-17T03:48:37.862Z,94425.41
2019-05-17T03:51:13.164Z,94426.19
2019-05-17T03:53:45.328Z,94428.97
2019-05-17T03:56:14.852Z,94430.07
2019-05-17T03:58:44.338Z,94436.63
2019-05-17T04:01:14.325Z,94439.46
2019-05-17T04:03:43.987Z,94434.81
2019-05-17T04:06:13.615Z,94436.03
2019-05-17T04:08:43.116Z,94434.22
2019-05-17T04:11:22.113Z,94436.28
2019-05-17T04:13:43.839Z,94438.99
2019-05-17T04:16:14.147Z,94439.08
2019-05-17T04:18:43.998Z,94440.06
2019-05-17T04:21:13.495Z,94434.63
2019-05-17T04:23:43.204Z,94440.66
2019-05-17T04:26:13.529Z,94442.23
2019-05-17T04:28:44.215Z,94435.47
2019-05-17T04:31:13.804Z,94445.05
2019-05-17T04:33:43.375Z,94439.70
2019-05-17T04:36:13.366Z,94444.16
2019-05-17T04:38:43.706Z,94436.28
2019-05-17T04:41:13.561Z,94438.84
2019-05-17T04:43:43.221Z,94434.09
2019-05-17T04:46:13.175Z,94431.27
2019-05-17T04:48:43.879Z,94434.92
2019-05-17T04:51:13.704Z,94446.13
2019-05-17T04:53:43.330Z,94448.34
2019-05-17T04:56:14.076Z,94445.12
2019-05-17T04:58:43.938Z,94441.49
2019-05-17T05:01:13.562Z,94448.66
2019-05-17T05:03:43.281Z,94451.49
2019-05-17T05:06:13.520Z,94454.86
2019-05-17T05:08:43.230Z,94451.17
2019-05-17T05:11:12.956Z,94448.01
2019-05-17T05:13:42.799Z,94443.64
2019-05-17T05:16:13.496Z,94451.31
2019-05-17T05:18:43.358Z,94448.17
2019-05-17T05:21:12.836Z,94451.23
2019-05-17T05:23:42.562Z,94453.30
2019-05-17T05:26:12.186Z,94456.66
2019-05-17T05:28:42.060Z,94453.36
2019-05-17T05:31:13.301Z,94458.83
2019-05-17T05:33:42.732Z,94460.39
2019-05-17T05:36:12.243Z,94454.16
2019-05-17T05:38:42.274Z,94456.58
2019-05-17T05:41:12.300Z,94454.88
2019-05-17T05:43:42.128Z,94448.30
2019-05-17T05:46:11.841Z,94449.17
2019-05-17T05:48:41.716Z,94449.22
2019-05-17T05:51:13.676Z,94444.87
2019-05-17T05:53:42.616Z,94445.91
2019-05-17T05:56:13.323Z,94445.08
2019-05-17T05:58:43.061Z,94445.00
2019-05-17T06:01:12.926Z,94449.61
2019-05-17T06:03:42.510Z,94445.14
2019-05-17T06:06:12.466Z,94450.05
2019-05-17T06:08:42.115Z,94449.03
2019-05-17T06:11:12.261Z,94451.91
2019-05-17T06:13:42.034Z,94451.52
2019-05-17T06:16:11.977Z,94453.36
2019-05-17T06:18:42.471Z,94455.92
2019-05-17T06:21:12.360Z,94449.63
2019-05-17T06:23:42.542Z,94453.63
2019-05-17T06:26:12.417Z,94450.89
2019-05-17T06:28:42.623Z,94450.52
2019-05-17T06:31:12.146Z,94454.83
2019-05-17T06:33:42.179Z,94449.84
2019-05-17T06:36:13.679Z,94455.20
2019-05-17T06:38:43.222Z,94452.24
2019-05-17T06:41:12.807Z,94448.25
2019-05-17T06:43:42.276Z,94443.61
2019-05-17T06:46:12.474Z,94452.93
2019-05-17T06:48:42.494Z,94457.49
2019-05-17T06:51:12.047Z,94458.30
2019-05-17T06:53:43.615Z,94455.57
2019-05-17T06:56:12.931Z,94457.02
2019-05-17T06:58:42.609Z,94457.30
2019-05-17T07:01:12.097Z,94457.63
2019-05-17T07:03:41.595Z,94456.41
2019-05-17T07:06:12.904Z,94461.31
2019-05-17T07:08:42.415Z,94458.33
2019-05-17T07:11:11.866Z,94457.97
2019-05-17T07:13:41.346Z,94460.62
2019-05-17T07:16:10.871Z,94457.16
2019-05-17T07:18:40.452Z,94456.15
2019-05-17T07:21:10.196Z,94449.73
2019-05-17T07:23:39.828Z,94448.16
2019-05-17T07:26:11.990Z,94450.94
2019-05-17T07:28:40.828Z,94446.79
2019-05-17T07:31:10.619Z,94439.94
2019-05-17T07:33:40.140Z,94439.16
2019-05-17T07:36:10.197Z,94440.91
2019-05-17T07:38:39.912Z,94447.41
2019-05-17T07:41:10.114Z,94446.38
2019-05-17T07:43:40.509Z,94440.43
2019-05-17T07:46:10.235Z,94444.40
2019-05-17T07:48:40.477Z,94448.66
2019-05-17T07:51:10.218Z,94449.92
2019-05-17T07:53:40.150Z,94446.74
2019-05-17T07:56:10.275Z,94453.05
2019-05-17T07:58:40.524Z,94456.08
2019-05-17T08:01:10.256Z,94455.84
2019-05-17T08:03:40.517Z,94449.23
2019-05-17T08:06:10.658Z,94453.20
2019-05-17T08:08:41.058Z,94447.64
2019-05-17T08:11:10.878Z,94446.36
2019-05-17T08:13:40.379Z,94448.84
2019-05-17T08:16:10.423Z,94439.63
2019-05-17T08:18:40.467Z,94438.84
2019-05-17T08:21:10.453Z,94434.74
2019-05-17T08:23:40.257Z,94437.05
2019-05-17T08:26:10.731Z,94439.26
2019-05-17T08:28:40.681Z,94437.11
2019-05-17T08:31:10.250Z,94430.67
2019-05-17T08:33:40.694Z,94434.92
2019-05-17T08:36:10.210Z,94431.45
2019-05-17T08:38:39.712Z,94425.72
2019-05-17T08:41:10.536Z,94420.64
2019-05-17T08:43:46.622Z,94419.81
2019-05-17T08:46:11.398Z,94413.09
2019-05-17T08:48:40.916Z,94420.19
2019-05-17T08:51:10.870Z,94414.41
2019-05-17T08:53:40.387Z,94418.96
2019-05-17T08:56:10.125Z,94418.07
2019-05-17T08:58:40.343Z,94410.95
2019-05-17T09:01:11.136Z,94410.59
2019-05-17T09:03:41.337Z,94411.58
2019-05-17T09:06:12.423Z,94403.86
2019-05-17T09:08:42.153Z,94404.50
2019-05-17T09:11:11.658Z,94393.67
2019-05-17T09:13:54.366Z,94397.41
2019-05-17T09:16:12.339Z,94399.52
2019-05-17T09:18:41.917Z,94406.16
2019-05-17T09:21:11.442Z,94404.44
2019-05-17T09:23:40.969Z,94411.12
2019-05-17T09:26:10.440Z,94407.08
2019-05-17T09:28:39.945Z,94401.36
2019-05-17T09:31:10.453Z,94400.96
2019-05-17T09:33:40.706Z,94403.59
2019-05-17T09:36:10.318Z,94395.37
2019-05-17T09:38:40.402Z,94400.44
2019-05-17T09:41:10.144Z,94397.11
2019-05-17T09:43:40.263Z,94385.67
2019-05-17T09:46:10.689Z,94378.84
2019-05-17T09:48:40.447Z,94376.50
2019-05-17T09:51:10.618Z,94376.27
2019-05-17T09:53:40.301Z,94379.50
2019-05-17T09:56:10.054Z,94388.17
2019-05-17T09:58:39.993Z,94381.74
2019-05-17T10:01:09.661Z,94380.78
2019-05-17T10:03:39.800Z,94384.74
2019-05-17T10:06:09.810Z,94375.95
2019-05-17T10:08:39.558Z,94379.41
2019-05-17T10:11:12.024Z,94383.09
2019-05-17T10:13:40.330Z,94378.51
2019-05-17T10:16:10.219Z,94377.18
2019-05-17T10:18:40.191Z,94370.64
2019-05-17T10:21:10.447Z,94368.30
2019-05-17T10:23:40.616Z,94375.02
2019-05-17T10:26:10.411Z,94378.99
2019-05-17T10:28:40.119Z,94373.70
2019-05-17T10:31:11.353Z,94374.72
2019-05-17T10:33:40.902Z,94374.42
2019-05-17T10:36:10.362Z,94370.68
2019-05-17T10:38:39.854Z,94364.33
2019-05-17T10:41:10.164Z,94371.30
2019-05-17T10:43:39.856Z,94367.56
2019-05-17T10:46:10.551Z,94371.02
2019-05-17T10:48:41.166Z,94372.61
2019-05-17T10:51:13.364Z,94374.73
2019-05-17T10:53:42.036Z,94374.74
2019-05-17T10:56:11.529Z,94377.67
2019-05-17T10:58:41.083Z,94377.41
2019-05-17T11:01:10.533Z,94369.70
2019-05-17T11:03:39.989Z,94364.36
2019-05-17T11:06:10.978Z,94360.13
2019-05-17T11:08:40.595Z,94357.98
2019-05-17T11:11:10.308Z,94366.25
2019-05-17T11:13:39.847Z,94360.87
2019-05-17T11:16:09.292Z,94360.84
2019-05-17T11:18:38.848Z,94353.97
2019-05-17T11:21:08.326Z,94350.80
2019-05-17T11:23:37.795Z,94353.22
2019-05-17T11:26:07.255Z,94358.78
2019-05-17T11:28:36.704Z,94351.56
2019-05-17T11:31:06.206Z,94350.02
2019-05-17T11:33:35.668Z,94348.47
2019-05-17T11:36:05.159Z,94349.63
2019-05-17T11:38:34.599Z,94351.53
2019-05-17T11:41:19.773Z,94345.45
2019-05-17T11:43:35.299Z,94345.49
2019-05-17T11:46:05.156Z,94347.36
2019-05-17T11:48:34.644Z,94352.15
2019-05-17T11:51:04.091Z,94351.33
2019-05-17T11:53:33.573Z,94351.05
2019-05-17T11:56:03.049Z,94345.72
2019-05-17T11:58:32.505Z,94350.50
2019-05-17T12:01:01.972Z,94353.42
2019-05-17T12:03:31.473Z,94353.42
2019-05-17T12:06:00.902Z,94353.36
2019-05-17T12:08:30.343Z,94354.64
2019-05-17T12:11:00.294Z,94355.95
2019-05-17T12:13:30.167Z,94361.04
2019-05-17T12:15:59.962Z,94351.17
2019-05-17T12:18:32.543Z,94342.20
2019-05-17T12:21:02.033Z,94332.95
2019-05-17T12:23:31.503Z,94334.02
2019-05-17T12:26:00.967Z,94330.86
2019-05-17T12:28:30.428Z,94331.87
2019-05-17T12:30:59.914Z,94340.70
2019-05-17T12:33:29.379Z,94340.84
2019-05-17T12:35:58.858Z,94346.41
2019-05-17T12:38:28.344Z,94341.02
2019-05-17T12:40:57.817Z,94329.21
2019-05-17T12:43:27.301Z,94329.21
2019-05-17T12:46:00.735Z,94333.91
2019-05-17T12:48:27.938Z,94341.51
2019-05-17T12:50:57.501Z,94328.16
2019-05-17T12:53:26.972Z,94334.95
2019-05-17T12:55:56.423Z,94331.89
2019-05-17T12:58:25.886Z,94328.02
2019-05-17T13:00:55.342Z,94328.44
2019-05-17T13:03:24.817Z,94321.98
2019-05-17T13:05:54.301Z,94333.23
2019-05-17T13:08:23.854Z,94324.91
2019-05-17T13:10:53.337Z,94333.07
2019-05-17T13:13:22.814Z,94317.05
2019-05-17T13:15:52.302Z,94316.50
2019-05-17T13:18:21.809Z,94296.16
2019-05-17T13:20:51.270Z,94296.45
2019-05-17T13:23:20.783Z,94296.79
2019-05-17T13:25:50.210Z,94286.52
2019-05-17T13:28:20.426Z,94286.48
2019-05-17T13:30:49.887Z,94294.95
2019-05-17T13:33:19.336Z,94291.14
2019-05-17T13:35:48.829Z,94315.17
2019-05-17T13:38:18.340Z,94295.77
2019-05-17T13:40:47.957Z,94299.84
2019-05-17T13:43:17.441Z,94298.69
2019-05-17T13:45:47.014Z,94312.98
2019-05-17T13:48:16.536Z,94324.34
2019-05-17T13:50:46.045Z,94313.45
2019-05-17T13:53:15.578Z,94317.61
2019-05-17T13:55:45.062Z,94314.02
2019-05-17T13:58:14.530Z,94307.56
2019-05-17T14:00:44.030Z,94313.63
2019-05-17T14:03:13.573Z,94318.89
2019-05-17T14:05:43.054Z,94327.03
2019-05-17T14:08:12.525Z,94330.62
2019-05-17T14:10:41.976Z,94330.49
2019-05-17T14:13:11.435Z,94339.86
2019-05-17T14:15:40.994Z,94330.28
2019-05-17T14:18:10.486Z,94321.93
2019-05-17T14:20:39.936Z,94329.20
2019-05-17T14:23:09.405Z,94336.53
2019-05-17T14:25:38.991Z,94343.32
2019-05-17T14:28:11.333Z,94337.00
2019-05-17T14:30:39.792Z,94337.37
2019-05-17T14:33:09.251Z,94339.08
2019-05-17T14:35:38.729Z,94348.08
2019-05-17T14:38:08.198Z,94348.09
2019-05-17T14:41:04.785Z,94351.64
2019-05-17T14:43:08.888Z,94352.80
2019-05-17T14:45:38.373Z,94358.37
2019-05-17T14:48:08.355Z,94362.26
2019-05-17T14:50:37.920Z,94374.43
2019-05-17T14:53:07.411Z,94392.31
2019-05-17T14:55:36.861Z,94386.89
2019-05-17T14:58:06.455Z,94375.01
2019-05-17T15:00:35.920Z,94370.37
2019-05-17T15:03:07.526Z,94362.61
2019-05-17T15:05:36.609Z,94366.95
2019-05-17T15:08:06.145Z,94360.61
2019-05-17T15:10:35.712Z,94371.72
2019-05-17T15:13:05.241Z,94368.41
2019-05-17T15:15:34.754Z,94357.45
2019-05-17T15:18:04.246Z,94354.09
2019-05-17T15:20:33.709Z,94354.00
2019-05-17T15:23:03.188Z,94352.86
2019-05-17T15:25:33.168Z,94353.25
2019-05-17T15:28:02.613Z,94353.75
2019-05-17T15:30:32.150Z,94353.94
2019-05-17T15:33:01.629Z,94342.73
2019-05-17T15:35:31.079Z,94337.45
2019-05-17T15:38:03.765Z,94324.43
2019-05-17T15:40:33.215Z,94321.08
2019-05-17T15:43:02.727Z,94342.90
2019-05-17T15:45:32.165Z,94355.14
2019-05-17T15:48:01.908Z,94360.14
2019-05-17T15:50:31.543Z,94351.74
2019-05-17T15:53:01.075Z,94341.98
2019-05-17T15:55:30.527Z,94340.73
2019-05-17T15:58:00.026Z,94333.66
2019-05-17T16:00:29.540Z,94328.13
2019-05-17T16:02:59.023Z,94325.91
2019-05-17T16:05:28.478Z,94334.97
2019-05-17T16:07:58.070Z,94347.20
2019-05-17T16:10:27.793Z,94356.58
2019-05-17T16:13:03.182Z,94354.62
2019-05-17T16:15:29.777Z,94352.49
2019-05-17T16:17:59.488Z,94357.97
2019-05-17T16:20:29.737Z,94363.75
2019-05-17T16:22:59.226Z,94358.23
2019-05-17T16:25:28.758Z,94360.35
2019-05-17T16:27:58.228Z,94366.79
2019-05-17T16:30:27.708Z,94363.48
2019-05-17T16:32:57.283Z,94360.33
2019-05-17T16:35:26.961Z,94356.36
2019-05-17T16:37:56.424Z,94358.08
2019-05-17T16:40:25.954Z,94367.89
2019-05-17T16:42:55.480Z,94367.67
2019-05-17T16:45:24.959Z,94367.61
2019-05-17T16:47:54.433Z,94375.95
2019-05-17T16:50:23.962Z,94379.11
2019-05-17T16:53:05.038Z,94383.00
2019-05-17T16:55:26.138Z,94376.03
2019-05-17T16:57:55.847Z,94379.95
2019-05-17T17:00:38.152Z,94373.06
2019-05-17T17:03:07.747Z,94376.50
2019-05-17T17:05:37.350Z,94377.27
2019-05-17T17:08:07.341Z,94380.18
2019-05-17T17:10:37.397Z,94381.44
2019-05-17T17:13:07.114Z,94384.79
2019-05-17T17:15:36.671Z,94402.73
2019-05-17T17:18:06.274Z,94406.17
2019-05-17T17:20:35.760Z,94403.91
2019-05-17T17:23:05.235Z,94408.61
2019-05-17T17:25:34.787Z,94399.66
2019-05-17T17:28:06.141Z,94400.65
2019-05-17T17:30:35.461Z,94393.27
2019-05-17T17:33:05.007Z,94384.23
2019-05-17T17:35:34.502Z,94399.30
2019-05-17T17:38:03.965Z,94401.66
2019-05-17T17:40:33.459Z,94398.73
2019-05-17T17:43:03.072Z,94399.30
2019-05-17T17:45:32.693Z,94400.78
2019-05-17T17:48:02.172Z,94391.42
2019-05-17T17:50:31.948Z,94392.84
2019-05-17T17:53:01.518Z,94398.69
2019-05-17T17:55:31.058Z,94399.05
2019-05-17T17:58:00.544Z,94399.66
2019-05-17T18:00:30.076Z,94408.17
2019-05-17T18:02:59.514Z,94410.14
2019-05-17T18:05:29.060Z,94402.36
2019-05-17T18:07:58.545Z,94407.83
2019-05-17T18:10:33.259Z,94411.66
2019-05-17T18:13:02.883Z,94412.38
2019-05-17T18:15:37.341Z,94417.42
2019-05-17T18:18:07.002Z,94421.25
2019-05-17T18:20:36.603Z,94418.23
2019-05-17T18:23:06.293Z,94417.00
2019-05-17T18:25:36.093Z,94410.09
2019-05-17T18:28:05.936Z,94404.05
2019-05-17T18:30:35.582Z,94413.05
2019-05-17T18:33:05.372Z,94415.91
2019-05-17T18:35:35.193Z,94414.56
2019-05-17T18:38:05.350Z,94409.83
2019-05-17T18:40:34.955Z,94410.41
2019-05-17T18:43:04.662Z,94414.81
2019-05-17T18:45:34.199Z,94419.25
2019-05-17T18:48:04.725Z,94420.34
2019-05-17T18:50:34.213Z,94420.89
2019-05-17T18:53:05.218Z,94409.61
2019-05-17T18:55:35.498Z,94413.91
2019-05-17T18:58:05.135Z,94422.91
2019-05-17T19:00:34.670Z,94426.61
2019-05-17T19:03:04.288Z,94423.91
2019-05-17T19:05:33.814Z,94420.52
2019-05-17T19:08:03.322Z,94430.50
2019-05-17T19:10:32.839Z,94431.98
2019-05-17T19:13:02.394Z,94434.78
2019-05-17T19:15:31.926Z,94439.25
2019-05-17T19:18:01.486Z,94443.44
2019-05-17T19:20:30.986Z,94450.02
2019-05-17T19:23:00.507Z,94452.95
2019-05-17T19:25:30.000Z,94459.26
2019-05-17T19:27:59.571Z,94462.34
2019-05-17T19:30:29.016Z,94461.95
2019-05-17T19:32:58.506Z,94466.65
2019-05-17T19:35:28.103Z,94470.16
2019-05-17T19:37:57.658Z,94465.11
2019-05-17T19:40:27.138Z,94477.27
2019-05-17T19:42:56.619Z,94480.25
2019-05-17T19:45:26.130Z,94482.63
2019-05-17T19:47:55.684Z,94476.84
2019-05-17T19:50:25.181Z,94483.44
2019-05-17T19:52:54.689Z,94479.55
2019-05-17T19:55:24.235Z,94473.59
2019-05-17T19:57:53.750Z,94474.05
2019-05-17T20:00:23.604Z,94476.45
2019-05-17T20:02:53.768Z,94476.52
2019-05-17T20:05:23.329Z,94477.64
2019-05-17T20:07:52.849Z,94474.69
2019-05-17T20:10:22.741Z,94473.45
2019-05-17T20:12:52.231Z,94464.12
2019-05-17T20:15:33.493Z,94456.22
2019-05-17T20:17:52.996Z,94449.05
2019-05-17T20:20:22.470Z,94447.34
2019-05-17T20:22:51.957Z,94437.25
2019-05-17T20:25:21.475Z,94428.95
2019-05-17T20:27:50.988Z,94431.95
2019-05-17T20:30:20.647Z,94434.84
2019-05-17T20:32:50.123Z,94431.19
2019-05-17T20:35:19.765Z,94430.09
2019-05-17T20:37:49.317Z,94424.98
2019-05-17T20:40:18.983Z,94426.52
2019-05-17T20:42:48.443Z,94424.98
2019-05-17T20:45:32.025Z,94427.39
2019-05-17T20:47:49.306Z,94433.69
2019-05-17T20:50:18.994Z,94431.27
2019-05-17T20:52:48.468Z,94428.31
2019-05-17T20:55:18.088Z,94422.32
2019-05-17T20:57:47.613Z,94423.97
2019-05-17T21:00:17.646Z,94416.55
2019-05-17T21:02:47.107Z,94418.89
2019-05-17T21:05:19.226Z,94422.03
2019-05-17T21:07:48.739Z,94418.16
2019-05-17T21:10:18.612Z,94422.45
2019-05-17T21:12:48.105Z,94422.70
2019-05-17T21:15:17.703Z,94431.55
2019-05-17T21:17:47.214Z,94432.97
2019-05-17T21:20:16.894Z,94430.41
2019-05-17T21:22:46.383Z,94426.41
2019-05-17T21:25:15.977Z,94426.75
2019-05-17T21:27:45.495Z,94433.25
2019-05-17T21:30:15.993Z,94433.05
2019-05-17T21:32:45.465Z,94428.67
2019-05-17T21:35:15.287Z,94433.45
2019-05-17T21:37:44.768Z,94427.78
2019-05-17T21:40:14.892Z,94429.61
2019-05-17T21:42:44.354Z,94427.03
2019-05-17T21:45:14.927Z,94433.25
2019-05-17T21:47:46.821Z,94436.52
2019-05-17T21:50:16.768Z,94435.86
2019-05-17T21:52:47.639Z,94438.03
2019-05-17T21:55:17.110Z,94438.61
2019-05-17T21:57:46.560Z,94436.88
2019-05-17T22:00:25.349Z,94440.45
2019-05-17T22:02:54.784Z,94444.11
2019-05-17T22:05:24.249Z,94450.91
2019-05-17T22:07:53.739Z,94448.43
2019-05-17T22:10:23.264Z,94447.04
2019-05-17T22:12:52.735Z,94449.02
2019-05-17T22:15:22.222Z,94442.44
2019-05-17T22:17:51.683Z,94441.44
2019-05-17T22:20:21.231Z,94444.22
2019-05-17T22:22:51.141Z,94440.86
2019-05-17T22:25:20.599Z,94435.91
2019-05-17T22:27:50.141Z,94431.45
2019-05-17T22:30:19.617Z,94432.91
2019-05-17T22:32:49.102Z,94429.48
2019-05-17T22:35:18.576Z,94421.81
2019-05-17T22:37:48.046Z,94421.09
2019-05-17T22:40:19.533Z,94418.67
2019-05-17T22:42:48.990Z,94416.50
2019-05-17T22:45:18.467Z,94417.58
2019-05-17T22:47:47.907Z,94413.34
2019-05-17T22:50:17.413Z,94413.42
2019-05-17T22:52:46.888Z,94409.34
2019-05-17T22:55:16.350Z,94403.11
2019-05-17T22:57:45.788Z,94400.44
2019-05-17T23:00:15.752Z,94403.41
2019-05-17T23:02:45.227Z,94399.03
2019-05-17T23:05:14.692Z,94393.57
2019-05-17T23:07:44.180Z,94396.53
2019-05-17T23:10:13.972Z,94401.44
2019-05-17T23:12:43.437Z,94403.27
2019-05-17T23:15:13.042Z,94401.80
2019-05-17T23:17:42.565Z,94407.26
2019-05-17T23:20:12.575Z,94408.07
2019-05-17T23:22:42.053Z,94407.05
2019-05-17T23:25:11.553Z,94402.48
2019-05-17T23:27:41.020Z,94408.08
2019-05-17T23:30:10.713Z,94409.69
2019-05-17T23:32:40.182Z,94414.30
2019-05-17T23:35:09.681Z,94417.52
2019-05-17T23:37:39.160Z,94416.42
2019-05-17T23:40:08.726Z,94418.83
2019-05-17T23:42:38.210Z,94421.72
2019-05-17T23:45:08.511Z,94425.91
2019-05-17T23:47:37.959Z,94427.94
2019-05-17T23:50:07.889Z,94424.34
2019-05-17T23:52:37.347Z,94433.41
2019-05-17T23:55:08.102Z,94428.87
2019-05-17T23:57:37.553Z,94434.28
